Time;durP1;ratioP1;P1;durP2;ratioP2;P2;SDS_P1;SDS_P2;PMS_P1;PMS_P2;Temp;Humidity;BMP_temperature;BMP_pressure;BME280_temperature;BME280_humidity;BME280_pressure;Samples;Min_cycle;Max_cycle;Signal;HPM_P1;HPM_P2
2023/02/10 00:03:56;;;;;;;41.08;20.60;;;2.70;99.90;;;;;;15133278;23;20030;-37
2023/02/10 00:09:59;;;;;;;41.23;20.73;;;2.70;99.90;;;;;;15134356;23;20026;-37
2023/02/10 00:16:03;;;;;;;39.38;20.02;;;2.70;99.90;;;;;;15131722;23;20030;-36
2023/02/10 00:22:05;;;;;;;40.42;20.00;;;2.80;99.90;;;;;;15132856;23;20026;-37
2023/02/10 00:28:08;;;;;;;41.13;21.35;;;2.70;99.90;;;;;;15134770;23;20077;-36
2023/02/10 00:34:13;;;;;;;41.47;19.67;;;2.70;99.90;;;;;;15130890;23;20026;-40
2023/02/10 00:40:16;;;;;;;43.53;21.10;;;2.70;99.90;;;;;;15129782;23;20022;-37
2023/02/10 00:46:19;;;;;;;41.90;21.55;;;2.70;99.90;;;;;;15134230;23;20037;-37
2023/02/10 00:52:23;;;;;;;39.10;20.88;;;2.70;99.90;;;;;;15107528;23;20019;-36
2023/02/10 00:58:26;;;;;;;42.97;21.67;;;2.70;99.90;;;;;;15132566;23;20026;-36
2023/02/10 01:04:28;;;;;;;43.55;21.35;;;2.80;99.90;;;;;;15129840;23;20027;-36
2023/02/10 01:10:37;;;;;;;43.42;20.80;;;2.70;99.90;;;;;;15131462;23;20022;-36
2023/02/10 01:16:39;;;;;;;41.17;20.52;;;2.70;99.90;;;;;;15130721;23;20030;-36
2023/02/10 01:22:41;;;;;;;38.35;20.67;;;2.60;99.90;;;;;;15132128;23;20034;-36
2023/02/10 01:28:44;;;;;;;46.78;20.00;;;2.50;99.90;;;;;;15131007;23;20022;-36
2023/02/10 01:34:46;;;;;;;40.03;20.67;;;2.50;99.90;;;;;;15131112;23;20022;-37
2023/02/10 01:40:49;;;;;;;37.38;20.73;;;2.50;99.90;;;;;;15129236;23;20556;-36
2023/02/10 01:46:52;;;;;;;37.25;19.50;;;2.40;99.90;;;;;;15133749;23;20026;-36
2023/02/10 01:52:56;;;;;;;38.83;20.20;;;2.40;99.90;;;;;;15133952;23;20343;-37
2023/02/10 01:58:58;;;;;;;42.67;21.93;;;2.40;99.90;;;;;;15130688;23;20022;-36
2023/02/10 02:05:03;;;;;;;37.15;19.92;;;2.30;99.90;;;;;;15104836;23;20029;-37
2023/02/10 02:11:25;;;;;;;39.22;19.98;;;2.10;99.90;;;;;;15130182;23;20329;-36
2023/02/10 02:17:45;;;;;;;37.90;19.15;;;2.00;99.90;;;;;;15108982;23;20038;-36
2023/02/10 02:23:53;;;;;;;44.92;20.40;;;2.00;99.90;;;;;;15125310;23;20029;-37
2023/02/10 02:30:26;;;;;;;40.92;21.48;;;1.80;99.90;;;;;;15131459;23;20022;-37
2023/02/10 02:36:39;;;;;;;43.13;21.35;;;1.80;99.90;;;;;;15132670;23;20109;-37
2023/02/10 02:42:42;;;;;;;41.90;21.67;;;1.90;99.90;;;;;;15121040;23;20022;-36
2023/02/10 02:49:02;;;;;;;49.70;22.15;;;2.00;99.90;;;;;;15128589;23;20033;-37
2023/02/10 02:55:12;;;;;;;49.35;22.88;;;2.00;99.90;;;;;;15129080;23;20085;-37
2023/02/10 03:01:56;;;;;;;44.28;21.27;;;2.00;99.90;;;;;;15117938;23;20566;-36
2023/02/10 03:07:58;;;;;;;42.33;21.33;;;2.10;99.90;;;;;;15107138;23;20408;-37
2023/02/10 03:14:00;;;;;;;44.58;20.80;;;2.20;99.90;;;;;;15103802;23;20029;-37
2023/02/10 03:20:03;;;;;;;45.50;20.75;;;2.20;99.90;;;;;;15102499;23;20030;-38
2023/02/10 03:26:06;;;;;;;44.60;22.15;;;2.30;99.90;;;;;;15104014;23;20404;-37
2023/02/10 03:32:08;;;;;;;46.38;22.60;;;2.20;99.90;;;;;;15105866;23;20022;-36
2023/02/10 03:38:11;;;;;;;42.88;22.63;;;2.10;99.90;;;;;;15106719;23;20380;-36
2023/02/10 03:44:13;;;;;;;43.17;22.33;;;2.10;99.90;;;;;;15101510;23;20030;-36
2023/02/10 03:50:16;;;;;;;46.97;22.55;;;2.10;99.90;;;;;;15080728;23;20037;-37
2023/02/10 03:56:18;;;;;;;48.83;22.77;;;2.10;99.90;;;;;;15104281;23;20062;-36
2023/02/10 04:02:20;;;;;;;52.78;23.27;;;2.10;99.90;;;;;;15118940;23;20023;-36
2023/02/10 04:08:23;;;;;;;52.40;22.33;;;2.10;99.90;;;;;;15077410;23;20026;-36
2023/02/10 04:14:25;;;;;;;52.72;23.40;;;2.10;99.90;;;;;;15110231;23;20491;-37
2023/02/10 04:20:27;;;;;;;54.20;24.83;;;2.00;99.90;;;;;;15102656;23;20030;-37
2023/02/10 04:26:32;;;;;;;66.80;26.65;;;2.00;99.90;;;;;;15037300;23;20396;-37
2023/02/10 04:32:34;;;;;;;50.72;23.73;;;2.00;99.90;;;;;;15037224;23;20023;-36
2023/02/10 04:38:36;;;;;;;57.13;25.63;;;2.00;99.90;;;;;;15032908;23;20138;-37
2023/02/10 04:44:38;;;;;;;60.08;26.08;;;1.90;99.90;;;;;;15040379;23;20334;-37
2023/02/10 04:50:41;;;;;;;60.17;27.02;;;1.90;99.90;;;;;;15038421;23;20054;-37
2023/02/10 04:56:43;;;;;;;65.45;27.77;;;1.90;99.90;;;;;;15052001;23;20088;-36
2023/02/10 05:02:45;;;;;;;67.97;30.63;;;1.90;99.90;;;;;;15047480;23;20506;-37
2023/02/10 05:08:49;;;;;;;64.93;29.85;;;1.90;99.90;;;;;;15042235;23;20023;-36
2023/02/10 05:14:51;;;;;;;72.50;30.75;;;2.00;99.90;;;;;;15035431;23;20414;-37
2023/02/10 05:20:55;;;;;;;72.35;32.55;;;2.00;99.90;;;;;;15049806;23;20027;-37
2023/02/10 05:26:57;;;;;;;76.00;33.53;;;2.10;99.90;;;;;;15056910;23;20023;-37
2023/02/10 05:33:00;;;;;;;70.50;31.70;;;2.10;99.90;;;;;;15059576;23;20400;-37
2023/02/10 05:45:23;;;;;;;72.88;32.78;;;2.20;99.90;;;;;;15056899;23;20031;-36
2023/02/10 05:51:26;;;;;;;76.60;33.63;;;2.10;99.90;;;;;;15058842;23;20038;-37
2023/02/10 05:57:28;;;;;;;65.60;32.55;;;2.20;99.90;;;;;;15053665;23;20406;-37
2023/02/10 06:03:30;;;;;;;73.13;33.15;;;2.20;99.90;;;;;;15048199;23;20022;-37
2023/02/10 06:09:32;;;;;;;66.90;33.70;;;2.20;99.90;;;;;;15042177;23;20754;-36
2023/02/10 06:15:35;;;;;;;72.65;33.30;;;2.20;99.90;;;;;;15039167;23;20031;-36
2023/02/10 06:21:37;;;;;;;75.25;34.05;;;2.20;99.90;;;;;;15046189;23;20023;-37
2023/02/10 06:27:39;;;;;;;69.45;31.67;;;2.20;99.90;;;;;;15118001;23;20027;-37
2023/02/10 06:33:41;;;;;;;75.00;33.67;;;2.20;99.90;;;;;;15107856;23;20022;-37
2023/02/10 06:39:43;;;;;;;76.50;33.08;;;2.10;99.90;;;;;;15110664;23;20023;-37
2023/02/10 06:45:45;;;;;;;72.40;33.33;;;2.10;99.90;;;;;;15107669;23;20027;-37
2023/02/10 06:51:48;;;;;;;75.28;32.55;;;2.10;99.90;;;;;;15111738;23;20022;-36
2023/02/10 06:57:51;;;;;;;83.40;35.35;;;2.10;99.90;;;;;;15123996;23;20033;-37
2023/02/10 07:03:53;;;;;;;83.05;35.92;;;2.00;99.90;;;;;;15123788;23;20032;-37
2023/02/10 07:09:55;;;;;;;85.45;34.97;;;2.00;99.90;;;;;;15131075;23;20019;-37
2023/02/10 07:15:58;;;;;;;83.43;36.13;;;2.00;99.90;;;;;;15128556;23;20566;-36
2023/02/10 07:22:04;;;;;;;84.97;34.88;;;2.00;99.90;;;;;;15128826;23;20046;-36
2023/02/10 07:28:08;;;;;;;79.07;33.15;;;1.90;99.90;;;;;;15128771;23;20030;-37
2023/02/10 07:34:10;;;;;;;76.88;32.38;;;1.90;99.90;;;;;;15128488;23;20062;-37
2023/02/10 07:40:12;;;;;;;80.95;35.88;;;1.90;99.90;;;;;;15127493;23;20018;-36
2023/02/10 07:46:15;;;;;;;76.20;31.80;;;1.90;99.90;;;;;;15128073;23;20022;-37
2023/02/10 07:52:17;;;;;;;72.53;30.05;;;1.90;99.90;;;;;;15129013;23;20022;-37
2023/02/10 07:58:19;;;;;;;80.20;31.75;;;2.00;99.90;;;;;;15115879;23;20026;-37
2023/02/10 08:04:22;;;;;;;91.57;34.15;;;2.00;99.90;;;;;;15110506;23;20225;-37
2023/02/10 08:10:24;;;;;;;83.63;33.03;;;2.10;99.90;;;;;;15108476;23;20129;-36
2023/02/10 08:16:26;;;;;;;78.38;34.20;;;2.20;99.90;;;;;;15109892;23;20027;-37
2023/02/10 08:22:28;;;;;;;87.30;35.00;;;2.30;99.90;;;;;;15110154;23;20037;-37
2023/02/10 08:28:30;;;;;;;92.07;35.78;;;2.30;99.90;;;;;;15107394;23;20602;-37
2023/02/10 08:34:33;;;;;;;93.47;36.97;;;2.40;99.90;;;;;;15113491;23;20033;-37
2023/02/10 08:40:36;;;;;;;83.15;34.60;;;2.30;99.90;;;;;;15106948;23;20025;-37
2023/02/10 08:46:38;;;;;;;84.35;35.22;;;2.40;99.90;;;;;;15104917;23;20030;-36
2023/02/10 08:52:39;;;;;;;90.90;35.92;;;2.50;99.90;;;;;;15092908;23;20022;-36
2023/02/10 08:58:41;;;;;;;85.38;34.95;;;2.50;99.90;;;;;;15125928;23;20019;-36
2023/02/10 09:04:43;;;;;;;87.38;35.40;;;2.60;99.90;;;;;;15126813;23;20032;-36
2023/02/10 09:10:46;;;;;;;85.03;34.70;;;2.70;99.90;;;;;;15128494;23;20149;-36
2023/02/10 09:16:48;;;;;;;85.25;34.35;;;2.70;99.90;;;;;;15124526;23;20030;-36
2023/02/10 09:22:50;;;;;;;88.30;35.53;;;2.70;99.90;;;;;;15116766;23;20038;-36
2023/02/10 09:28:52;;;;;;;91.93;36.53;;;2.80;99.90;;;;;;15127876;23;20606;-36
2023/02/10 09:34:54;;;;;;;94.85;38.75;;;2.70;99.90;;;;;;15128662;23;20487;-36
2023/02/10 09:41:14;;;;;;;93.00;38.58;;;2.60;99.90;;;;;;15119457;23;20022;-36
2023/02/10 09:47:16;;;;;;;100.18;38.90;;;2.80;99.90;;;;;;15117273;23;20023;-36
2023/02/10 09:53:26;;;;;;;86.90;37.28;;;3.00;99.90;;;;;;15123415;23;20062;-36
2023/02/10 09:59:28;;;;;;;88.25;38.42;;;3.10;99.90;;;;;;15107496;23;20483;-36
2023/02/10 10:05:52;;;;;;;95.40;40.45;;;3.20;99.90;;;;;;15091882;23;20037;-36
2023/02/10 10:11:54;;;;;;;90.50;40.47;;;3.30;99.90;;;;;;15087459;23;20034;-36
2023/02/10 10:18:25;;;;;;;91.28;39.08;;;3.30;99.90;;;;;;15093589;23;20026;-36
2023/02/10 10:25:18;;;;;;;91.20;39.47;;;3.40;99.90;;;;;;15093807;23;20034;-36
2023/02/10 10:31:39;;;;;;;83.15;37.70;;;3.50;99.90;;;;;;15033385;23;20048;-36
2023/02/10 10:37:41;;;;;;;86.65;39.30;;;3.60;99.90;;;;;;15091077;23;20093;-36
2023/02/10 10:43:49;;;;;;;83.00;37.72;;;3.90;99.90;;;;;;15084394;23;20638;-38
2023/02/10 10:49:51;;;;;;;68.28;34.55;;;4.00;99.90;;;;;;15096288;23;20434;-37
2023/02/10 10:55:55;;;;;;;74.28;36.03;;;4.00;99.90;;;;;;15102319;23;20081;-37
2023/02/10 11:01:57;;;;;;;71.55;34.78;;;4.10;99.90;;;;;;15123926;23;20023;-37
2023/02/10 11:08:00;;;;;;;73.32;36.03;;;4.00;99.90;;;;;;15116145;23;20141;-36
2023/02/10 11:14:11;;;;;;;66.68;34.85;;;4.10;99.90;;;;;;15124327;23;20101;-37
2023/02/10 11:20:13;;;;;;;66.13;32.97;;;4.00;99.90;;;;;;15115887;23;20146;-37
2023/02/10 11:26:24;;;;;;;65.88;33.88;;;4.10;99.90;;;;;;15120683;23;20030;-36
2023/02/10 11:32:35;;;;;;;67.20;33.92;;;4.40;99.90;;;;;;15124563;23;20403;-37
2023/02/10 11:38:39;;;;;;;67.40;33.55;;;4.60;99.90;;;;;;15103536;23;20049;-37
2023/02/10 11:44:41;;;;;;;68.93;32.87;;;4.70;99.90;;;;;;15122761;23;20026;-37
2023/02/10 11:50:43;;;;;;;61.67;31.88;;;5.00;99.90;;;;;;15134329;23;20496;-37
2023/02/10 12:03:56;;;;;;;54.97;29.25;;;5.30;99.90;;;;;;15128814;23;20028;-37
2023/02/10 12:10:36;;;;;;;50.03;26.95;;;5.40;99.90;;;;;;15107538;23;20026;-37
2023/02/10 12:16:56;;;;;;;48.65;26.63;;;5.40;99.90;;;;;;15133388;23;20050;-37
2023/02/10 12:23:26;;;;;;;47.97;24.73;;;5.60;99.90;;;;;;15125966;23;20023;-37
2023/02/10 12:29:55;;;;;;;41.70;22.90;;;5.50;99.90;;;;;;15131114;23;20033;-37
2023/02/10 12:36:13;;;;;;;39.15;20.65;;;5.50;99.90;;;;;;15128213;23;20030;-37
2023/02/10 12:42:36;;;;;;;34.72;19.45;;;5.50;99.90;;;;;;15126130;23;20026;-37
2023/02/10 12:49:10;;;;;;;36.80;19.60;;;5.70;99.90;;;;;;15129610;23;20022;-37
2023/02/10 12:55:18;;;;;;;33.30;18.25;;;5.70;99.90;;;;;;15081145;23;20033;-37
2023/02/10 13:01:34;;;;;;;39.00;17.52;;;5.70;99.90;;;;;;15129618;23;20041;-37
2023/02/10 13:07:45;;;;;;;38.83;18.60;;;5.80;99.90;;;;;;15121468;23;20018;-36
2023/02/10 13:13:47;;;;;;;32.35;16.65;;;5.90;99.90;;;;;;15125307;23;20027;-36
2023/02/10 13:20:06;;;;;;;31.42;16.65;;;6.00;99.90;;;;;;15102135;23;20032;-36
2023/02/10 13:26:31;;;;;;;32.25;16.45;;;6.00;99.90;;;;;;15116506;23;20120;-36
2023/02/10 13:32:49;;;;;;;32.85;16.13;;;6.10;99.90;;;;;;15127765;23;20355;-36
2023/02/10 13:38:59;;;;;;;33.40;16.95;;;6.10;99.90;;;;;;15124616;23;20026;-36
2023/02/10 13:45:04;;;;;;;28.83;16.30;;;6.30;99.90;;;;;;15122400;23;20045;-36
2023/02/10 13:51:07;;;;;;;31.88;16.52;;;6.30;99.90;;;;;;15128597;23;20351;-37
2023/02/10 13:57:27;;;;;;;38.55;17.40;;;6.00;99.90;;;;;;15129299;23;20425;-36
2023/02/10 14:03:32;;;;;;;31.17;17.27;;;5.90;99.90;;;;;;15127885;23;20166;-36
2023/02/10 14:09:37;;;;;;;;;;;5.70;99.90;;;;;;15127414;23;20018;-36
2023/02/10 14:15:40;;;;;;;;;;;5.70;99.90;;;;;;15124482;23;19944;-37
2023/02/10 14:21:45;;;;;;;31.25;16.05;;;5.80;99.90;;;;;;15123382;23;19917;-37
2023/02/10 14:27:49;;;;;;;34.72;17.48;;;5.70;99.90;;;;;;15123395;23;20022;-36
2023/02/10 14:33:57;;;;;;;31.60;16.75;;;5.70;99.90;;;;;;15128185;23;20392;-36
2023/02/10 14:40:00;;;;;;;32.10;16.70;;;5.70;99.90;;;;;;15115722;23;20022;-36
2023/02/10 14:46:02;;;;;;;34.87;16.40;;;5.60;99.90;;;;;;15117052;23;20101;-36
2023/02/10 14:52:04;;;;;;;29.30;15.85;;;5.60;99.90;;;;;;15124194;23;20052;-36
2023/02/10 14:58:12;;;;;;;34.35;18.75;;;5.40;99.90;;;;;;15122297;23;20030;-36
2023/02/10 15:04:17;;;;;;;30.77;16.77;;;5.30;99.90;;;;;;15127235;23;20030;-36
2023/02/10 15:10:27;;;;;;;31.15;17.05;;;5.30;99.90;;;;;;15125054;23;20033;-36
2023/02/10 15:16:29;;;;;;;28.88;15.85;;;5.20;99.90;;;;;;15124797;23;20042;-36
2023/02/10 15:22:39;;;;;;;33.20;17.67;;;5.20;99.90;;;;;;15120895;23;20026;-36
2023/02/10 15:28:43;;;;;;;32.17;17.13;;;5.00;99.90;;;;;;15125529;23;20053;-37
2023/02/10 15:34:46;;;;;;;36.80;18.10;;;5.10;99.90;;;;;;15124150;23;20030;-36
2023/02/10 15:40:56;;;;;;;33.40;17.90;;;5.20;99.90;;;;;;15122193;23;20028;-36
2023/02/10 15:47:16;;;;;;;29.40;15.77;;;5.20;99.90;;;;;;15122900;23;20040;-36
2023/02/10 15:53:20;;;;;;;40.10;17.58;;;5.00;99.90;;;;;;15122479;23;20027;-36
2023/02/10 15:59:27;;;;;;;32.72;17.67;;;4.90;99.90;;;;;;15124883;23;20371;-36
2023/02/10 16:05:29;;;;;;;36.92;17.98;;;4.80;99.90;;;;;;15122593;23;20106;-36
2023/02/10 16:11:31;;;;;;;35.05;18.27;;;4.80;99.90;;;;;;15118742;23;20026;-36
2023/02/10 16:17:39;;;;;;;35.05;18.20;;;4.70;99.90;;;;;;15123595;23;20475;-36
2023/02/10 16:23:41;;;;;;;35.38;18.70;;;4.60;99.90;;;;;;15101051;23;20026;-36
2023/02/10 16:29:43;;;;;;;39.30;19.38;;;4.60;99.90;;;;;;15125029;23;20466;-36
2023/02/10 16:35:45;;;;;;;40.13;19.27;;;4.50;99.90;;;;;;15101023;23;20030;-36
2023/02/10 16:41:48;;;;;;;38.70;19.48;;;4.40;99.90;;;;;;15126774;23;20101;-36
2023/02/10 16:47:50;;;;;;;36.92;18.92;;;4.40;99.90;;;;;;15130340;23;20400;-36
2023/02/10 16:53:54;;;;;;;42.03;21.17;;;4.20;99.90;;;;;;15127280;23;20027;-36
2023/02/10 16:59:56;;;;;;;39.35;19.05;;;4.20;99.90;;;;;;15129979;23;20022;-36
2023/02/10 17:05:58;;;;;;;36.40;19.50;;;4.10;99.90;;;;;;15126259;23;20026;-36
2023/02/10 17:12:00;;;;;;;40.72;20.88;;;4.00;99.90;;;;;;15119749;23;20026;-36
2023/02/10 17:18:02;;;;;;;37.92;19.73;;;4.00;99.90;;;;;;15126554;23;20026;-36
2023/02/10 17:24:04;;;;;;;33.67;18.77;;;3.90;99.90;;;;;;15127928;23;20062;-36
2023/02/10 17:30:07;;;;;;;37.60;19.60;;;3.80;99.90;;;;;;15123548;23;20026;-36
2023/02/10 17:36:10;;;;;;;35.85;19.13;;;3.70;99.90;;;;;;15066104;23;20022;-36
2023/02/10 17:42:12;;;;;;;36.65;18.17;;;3.70;99.90;;;;;;15124436;23;20026;-36
2023/02/10 17:48:14;;;;;;;39.55;18.23;;;3.80;99.90;;;;;;15128335;23;20344;-36
2023/02/10 17:54:16;;;;;;;33.67;17.90;;;3.80;99.90;;;;;;15099336;23;20360;-36
2023/02/10 18:00:18;;;;;;;33.75;17.40;;;3.90;99.90;;;;;;15130027;23;20444;-36
2023/02/10 18:06:20;;;;;;;36.63;17.25;;;4.00;99.90;;;;;;15124392;23;20024;-36
2023/02/10 18:12:22;;;;;;;36.38;18.02;;;4.00;99.90;;;;;;15123147;23;20022;-36
2023/02/10 18:18:24;;;;;;;36.22;16.80;;;4.10;99.90;;;;;;15125368;23;20437;-36
2023/02/10 18:24:26;;;;;;;34.28;17.40;;;4.00;99.90;;;;;;15121527;23;20026;-36
2023/02/10 18:30:28;;;;;;;37.05;18.73;;;4.10;99.90;;;;;;15099401;23;20118;-37
2023/02/10 18:36:30;;;;;;;40.65;18.65;;;4.10;99.90;;;;;;15124792;23;20023;-36
2023/02/10 18:42:32;;;;;;;40.65;18.77;;;4.10;99.90;;;;;;15124523;23;20023;-36
2023/02/10 18:48:34;;;;;;;36.65;18.23;;;4.10;99.90;;;;;;15124287;23;20625;-36
2023/02/10 18:54:36;;;;;;;38.58;19.38;;;4.10;99.90;;;;;;15121912;23;20030;-36
2023/02/10 19:00:40;;;;;;;40.70;20.27;;;4.10;99.90;;;;;;15127179;23;20022;-35
2023/02/10 19:06:42;;;;;;;40.42;21.00;;;4.20;99.90;;;;;;15126500;23;20104;-36
2023/02/10 19:12:44;;;;;;;43.03;20.25;;;4.30;99.90;;;;;;15125859;23;20022;-36
2023/02/10 19:18:45;;;;;;;41.08;20.45;;;4.40;99.90;;;;;;15127385;23;20471;-36
2023/02/10 19:24:47;;;;;;;40.38;20.85;;;4.40;99.90;;;;;;15122755;23;20125;-36
2023/02/10 19:30:49;;;;;;;45.65;20.88;;;4.30;99.90;;;;;;15123696;23;20029;-36
2023/02/10 19:36:51;;;;;;;41.63;22.55;;;4.40;99.90;;;;;;15124819;23;20176;-36
2023/02/10 19:42:54;;;;;;;38.58;20.45;;;4.40;99.90;;;;;;15121996;23;20026;-36
2023/02/10 19:48:56;;;;;;;42.75;21.15;;;4.50;99.90;;;;;;15118155;23;20050;-36
2023/02/10 19:54:57;;;;;;;40.00;21.70;;;4.60;99.90;;;;;;15123901;23;20126;-36
2023/02/10 20:01:14;;;;;;;39.22;20.95;;;4.50;99.90;;;;;;15126708;23;20048;-36
2023/02/10 20:07:16;;;;;;;41.78;21.02;;;4.60;99.90;;;;;;15122655;23;20029;-36
2023/02/10 20:13:18;;;;;;;41.70;21.27;;;4.60;99.90;;;;;;15130323;23;20027;-36
2023/02/10 20:19:20;;;;;;;39.72;19.65;;;4.60;99.90;;;;;;15128333;23;20018;-36
2023/02/10 20:25:22;;;;;;;36.95;20.50;;;4.60;99.90;;;;;;15126266;23;20030;-36
2023/02/10 20:31:24;;;;;;;37.17;20.73;;;4.60;99.90;;;;;;15129148;23;20033;-36
2023/02/10 20:37:26;;;;;;;36.40;20.67;;;4.60;99.90;;;;;;15124848;23;20033;-36
2023/02/10 20:43:28;;;;;;;38.97;20.33;;;4.60;99.90;;;;;;15124108;23;20033;-36
2023/02/10 20:49:31;;;;;;;41.10;21.75;;;4.60;99.90;;;;;;15125178;23;20489;-36
2023/02/10 20:55:33;;;;;;;39.33;22.05;;;4.70;99.90;;;;;;15129072;23;20034;-35
2023/02/10 21:01:34;;;;;;;42.33;21.40;;;4.70;99.90;;;;;;15127650;23;20639;-36
2023/02/10 21:07:36;;;;;;;37.75;21.30;;;4.70;99.90;;;;;;15127653;23;20042;-36
2023/02/10 21:13:38;;;;;;;42.28;22.05;;;4.70;99.90;;;;;;15125683;23;20113;-35
2023/02/10 21:19:40;;;;;;;44.60;22.67;;;4.70;99.90;;;;;;15124084;23;20413;-35
2023/02/10 21:25:42;;;;;;;37.80;21.75;;;4.70;99.90;;;;;;15122699;23;20363;-36
2023/02/10 21:31:44;;;;;;;41.10;23.00;;;4.80;99.90;;;;;;15124638;23;20335;-36
2023/02/10 21:37:46;;;;;;;46.30;23.50;;;4.80;99.90;;;;;;15125265;23;20401;-36
2023/02/10 21:43:48;;;;;;;44.03;23.10;;;4.80;99.90;;;;;;15121913;23;20032;-36
2023/02/10 21:49:49;;;;;;;41.53;23.58;;;4.90;99.90;;;;;;15121286;23;20019;-36
2023/02/10 21:55:51;;;;;;;44.88;22.65;;;4.90;99.90;;;;;;15102417;23;20371;-36
2023/02/10 22:01:53;;;;;;;41.70;24.02;;;4.90;99.90;;;;;;15105101;23;20022;-36
2023/02/10 22:07:55;;;;;;;43.05;23.48;;;4.90;99.90;;;;;;15116273;23;20022;-35
2023/02/10 22:13:57;;;;;;;45.03;23.05;;;4.90;99.90;;;;;;15124482;23;20078;-36
2023/02/10 22:19:59;;;;;;;43.20;22.30;;;4.90;99.90;;;;;;15120272;23;20358;-36
2023/02/10 22:26:02;;;;;;;39.58;24.08;;;4.90;99.90;;;;;;15123878;23;20023;-36
2023/02/10 22:32:04;;;;;;;45.80;25.73;;;5.00;99.90;;;;;;15121660;23;20026;-36
2023/02/10 22:38:06;;;;;;;49.78;24.42;;;4.90;99.90;;;;;;15121475;23;20071;-36
2023/02/10 22:44:08;;;;;;;46.20;26.50;;;5.00;99.90;;;;;;15123303;23;20030;-36
2023/02/10 22:50:10;;;;;;;48.70;25.13;;;5.00;99.90;;;;;;15123208;23;20022;-36
2023/02/10 22:56:15;;;;;;;51.83;25.58;;;5.00;99.90;;;;;;15122521;23;20023;-36
2023/02/10 23:02:17;;;;;;;48.50;26.45;;;5.00;99.90;;;;;;15126009;23;20368;-36
2023/02/10 23:08:19;;;;;;;49.60;26.48;;;5.00;99.90;;;;;;15125989;23;20026;-37
2023/02/10 23:14:21;;;;;;;54.60;28.75;;;5.10;99.90;;;;;;15122234;23;20357;-36
2023/02/10 23:20:23;;;;;;;57.72;27.30;;;5.10;99.90;;;;;;15099944;23;20108;-36
2023/02/10 23:26:31;;;;;;;55.80;28.15;;;5.10;99.90;;;;;;15124713;23;20460;-37
2023/02/10 23:32:33;;;;;;;50.97;26.73;;;5.10;99.90;;;;;;15123819;23;20033;-36
2023/02/10 23:38:35;;;;;;;53.75;28.40;;;5.20;99.90;;;;;;15119022;23;20032;-36
2023/02/10 23:44:36;;;;;;;54.10;28.48;;;5.10;99.90;;;;;;15118470;23;20030;-36
2023/02/10 23:50:38;;;;;;;57.80;30.52;;;5.20;99.90;;;;;;15123947;23;20023;-36
2023/02/10 23:56:41;;;;;;;56.28;28.73;;;5.20;99.90;;;;;;15126717;23;20026;-36
